sensor_id;sensor_type;location;lat;lon;timestamp;pressure;altitude;pressure_sealevel;temperature;humidity
67052;BME280;53957;47.222;18.670;2023-05-27T18:25:59;100374.25;;;19.80;70.47
67052;BME280;53957;47.222;18.670;2023-05-27T18:29:03;100381.03;;;19.61;71.77
67052;BME280;53957;47.222;18.670;2023-05-27T18:32:09;100379.34;;;19.44;71.60
67052;BME280;53957;47.222;18.670;2023-05-27T18:35:12;100374.16;;;19.39;71.95
67052;BME280;53957;47.222;18.670;2023-05-27T18:38:32;100376.75;;;19.36;69.78
67052;BME280;53957;47.222;18.670;2023-05-27T18:41:37;100384.22;;;19.26;71.82
67052;BME280;53957;47.222;18.670;2023-05-27T18:44:40;100382.97;;;19.24;70.62
67052;BME280;53957;47.222;18.670;2023-05-27T18:47:43;100385.78;;;19.15;69.50
67052;BME280;53957;47.222;18.670;2023-05-27T18:50:46;100395.91;;;19.06;69.51
67052;BME280;53957;47.222;18.670;2023-05-27T18:53:49;100389.59;;;19.02;70.36
67052;BME280;53957;47.222;18.670;2023-05-27T18:56:52;100398.41;;;18.90;72.20
67052;BME280;53957;47.222;18.670;2023-05-27T18:59:55;100401.56;;;18.79;72.29
67052;BME280;53957;47.222;18.670;2023-05-27T19:02:57;100407.06;;;18.71;74.06
67052;BME280;53957;47.222;18.670;2023-05-27T19:06:04;100398.56;;;18.60;74.77
67052;BME280;53957;47.222;18.670;2023-05-27T19:09:07;100397.06;;;18.50;75.16
67052;BME280;53957;47.222;18.670;2023-05-27T19:12:10;100407.94;;;18.41;75.32
67052;BME280;53957;47.222;18.670;2023-05-27T19:15:13;100400.78;;;18.24;77.11
67052;BME280;53957;47.222;18.670;2023-05-27T19:18:16;100402.09;;;18.18;75.20
67052;BME280;53957;47.222;18.670;2023-05-27T19:21:19;100409.91;;;18.11;76.06
67052;BME280;53957;47.222;18.670;2023-05-27T19:24:23;100405.00;;;18.13;76.71
67052;BME280;53957;47.222;18.670;2023-05-27T19:27:26;100401.81;;;18.11;79.99
67052;BME280;53957;47.222;18.670;2023-05-27T19:30:29;100415.03;;;18.03;78.52
67052;BME280;53957;47.222;18.670;2023-05-27T19:33:32;100405.06;;;18.04;78.08
67052;BME280;53957;47.222;18.670;2023-05-27T19:36:35;100410.75;;;18.02;76.12
67052;BME280;53957;47.222;18.670;2023-05-27T19:39:38;100419.06;;;17.97;78.20
67052;BME280;53957;47.222;18.670;2023-05-27T19:42:41;100412.56;;;17.90;79.41
67052;BME280;53957;47.222;18.670;2023-05-27T19:45:44;100410.22;;;17.88;79.69
67052;BME280;53957;47.222;18.670;2023-05-27T19:48:47;100411.81;;;17.80;80.77
67052;BME280;53957;47.222;18.670;2023-05-27T19:51:51;100411.53;;;17.82;79.89
67052;BME280;53957;47.222;18.670;2023-05-27T19:54:54;100405.84;;;17.75;82.61
67052;BME280;53957;47.222;18.670;2023-05-27T19:57:57;100404.41;;;17.77;82.42
67052;BME280;53957;47.222;18.670;2023-05-27T20:01:00;100411.47;;;17.61;83.86
67052;BME280;53957;47.222;18.670;2023-05-27T20:04:03;100406.37;;;17.59;83.05
67052;BME280;53957;47.222;18.670;2023-05-27T20:07:06;100399.78;;;17.48;82.74
67052;BME280;53957;47.222;18.670;2023-05-27T20:10:10;100402.50;;;17.48;85.10
67052;BME280;53957;47.222;18.670;2023-05-27T20:13:12;100402.19;;;17.41;84.17
67052;BME280;53957;47.222;18.670;2023-05-27T20:16:15;100408.69;;;17.48;84.77
67052;BME280;53957;47.222;18.670;2023-05-27T20:19:18;100407.97;;;17.30;86.12
67052;BME280;53957;47.222;18.670;2023-05-27T20:22:21;100404.22;;;17.14;85.47
67052;BME280;53957;47.222;18.670;2023-05-27T20:43:54;100459.25;;;17.04;90.09
67052;BME280;53957;47.222;18.670;2023-05-27T20:47:02;100445.47;;;16.88;93.58
67052;BME280;53957;47.222;18.670;2023-05-27T20:50:05;100445.59;;;16.83;93.91
67052;BME280;53957;47.222;18.670;2023-05-27T20:53:08;100453.84;;;16.78;93.49
67052;BME280;53957;47.222;18.670;2023-05-27T20:56:11;100442.62;;;16.76;93.54
67052;BME280;53957;47.222;18.670;2023-05-27T20:59:15;100444.03;;;16.55;96.35
67052;BME280;53957;47.222;18.670;2023-05-27T21:02:18;100440.41;;;16.42;94.40
67052;BME280;53957;47.222;18.670;2023-05-27T21:05:21;100441.06;;;16.57;94.60
67052;BME280;53957;47.222;18.670;2023-05-27T21:08:24;100451.50;;;16.32;98.13
67052;BME280;53957;47.222;18.670;2023-05-27T21:11:27;100457.19;;;16.31;97.48
67052;BME280;53957;47.222;18.670;2023-05-27T21:14:29;100456.56;;;16.25;98.44
67052;BME280;53957;47.222;18.670;2023-05-27T21:17:32;100457.16;;;16.04;100.00
67052;BME280;53957;47.222;18.670;2023-05-27T21:20:35;100452.88;;;16.03;100.00
67052;BME280;53957;47.222;18.670;2023-05-27T21:23:41;100453.31;;;15.88;100.00
67052;BME280;53957;47.222;18.670;2023-05-27T21:26:44;100451.91;;;15.59;100.00
67052;BME280;53957;47.222;18.670;2023-05-27T21:29:47;100454.41;;;15.46;100.00
67052;BME280;53957;47.222;18.670;2023-05-27T21:32:50;100460.72;;;15.51;100.00
67052;BME280;53957;47.222;18.670;2023-05-27T21:35:53;100456.88;;;15.34;100.00
67052;BME280;53957;47.222;18.670;2023-05-27T21:38:56;100454.78;;;15.22;100.00
67052;BME280;53957;47.222;18.670;2023-05-27T21:41:59;100462.41;;;15.06;100.00
67052;BME280;53957;47.222;18.670;2023-05-27T21:45:03;100459.22;;;15.67;100.00
67052;BME280;53957;47.222;18.670;2023-05-27T21:48:06;100454.53;;;15.82;94.64
67052;BME280;53957;47.222;18.670;2023-05-27T21:51:09;100461.69;;;15.95;89.82
67052;BME280;53957;47.222;18.670;2023-05-27T21:54:12;100451.91;;;15.99;87.29
67052;BME280;53957;47.222;18.670;2023-05-27T21:57:15;100459.41;;;15.71;93.86
67052;BME280;53957;47.222;18.670;2023-05-27T22:00:18;100457.44;;;15.94;87.38
67052;BME280;53957;47.222;18.670;2023-05-27T22:03:22;100456.00;;;15.88;87.67
67052;BME280;53957;47.222;18.670;2023-05-27T22:06:26;100452.66;;;15.82;86.92
67052;BME280;53957;47.222;18.670;2023-05-27T22:09:35;100449.38;;;15.85;86.60
67052;BME280;53957;47.222;18.670;2023-05-27T22:12:38;100449.25;;;15.68;88.49
67052;BME280;53957;47.222;18.670;2023-05-27T22:15:41;100441.97;;;15.59;89.28
67052;BME280;53957;47.222;18.670;2023-05-27T22:18:44;100444.03;;;15.62;87.75
67052;BME280;53957;47.222;18.670;2023-05-27T22:21:47;100440.34;;;15.50;90.49
67052;BME280;53957;47.222;18.670;2023-05-27T22:24:50;100434.66;;;15.20;93.56
67052;BME280;53957;47.222;18.670;2023-05-27T22:27:54;100434.44;;;15.07;93.67
67052;BME280;53957;47.222;18.670;2023-05-27T22:30:58;100437.37;;;14.97;98.33
67052;BME280;53957;47.222;18.670;2023-05-27T22:34:01;100438.56;;;14.82;97.94
67052;BME280;53957;47.222;18.670;2023-05-27T22:37:04;100438.06;;;14.80;98.95
67052;BME280;53957;47.222;18.670;2023-05-27T22:40:07;100431.75;;;14.62;100.00
67052;BME280;53957;47.222;18.670;2023-05-27T22:43:10;100428.69;;;14.55;100.00
67052;BME280;53957;47.222;18.670;2023-05-27T22:46:13;100424.53;;;14.48;100.00
67052;BME280;53957;47.222;18.670;2023-05-27T22:49:19;100423.44;;;14.49;99.66
67052;BME280;53957;47.222;18.670;2023-05-27T22:52:22;100423.06;;;14.42;100.00
67052;BME280;53957;47.222;18.670;2023-05-27T22:55:27;100426.34;;;14.76;96.99
67052;BME280;53957;47.222;18.670;2023-05-27T22:58:30;100431.38;;;14.55;99.93
67052;BME280;53957;47.222;18.670;2023-05-27T23:01:32;100433.44;;;14.35;100.00
67052;BME280;53957;47.222;18.670;2023-05-27T23:04:36;100427.63;;;14.42;99.56
67052;BME280;53957;47.222;18.670;2023-05-27T23:07:38;100423.91;;;14.65;94.60
67052;BME280;53957;47.222;18.670;2023-05-27T23:10:41;100428.50;;;14.88;91.29
67052;BME280;53957;47.222;18.670;2023-05-27T23:13:44;100421.00;;;15.07;87.76
67052;BME280;53957;47.222;18.670;2023-05-27T23:16:47;100424.31;;;15.04;87.24
67052;BME280;53957;47.222;18.670;2023-05-27T23:19:54;100415.06;;;14.88;89.15
67052;BME280;53957;47.222;18.670;2023-05-27T23:22:58;100413.47;;;14.87;89.98
67052;BME280;53957;47.222;18.670;2023-05-27T23:26:01;100408.22;;;14.81;90.16
67052;BME280;53957;47.222;18.670;2023-05-27T23:29:04;100406.19;;;14.64;92.58
67052;BME280;53957;47.222;18.670;2023-05-27T23:32:07;100416.16;;;14.27;97.65
67052;BME280;53957;47.222;18.670;2023-05-27T23:35:10;100408.91;;;14.28;98.15
67052;BME280;53957;47.222;18.670;2023-05-27T23:38:13;100402.63;;;13.82;100.00
67052;BME280;53957;47.222;18.670;2023-05-27T23:41:16;100406.37;;;13.95;98.42
67052;BME280;53957;47.222;18.670;2023-05-27T23:44:19;100396.94;;;14.34;91.75
67052;BME280;53957;47.222;18.670;2023-05-27T23:47:22;100392.75;;;14.42;92.28
67052;BME280;53957;47.222;18.670;2023-05-27T23:50:26;100389.09;;;14.38;94.13
67052;BME280;53957;47.222;18.670;2023-05-27T23:53:29;100390.88;;;14.42;91.02
67052;BME280;53957;47.222;18.670;2023-05-27T23:56:32;100391.06;;;14.46;90.67
67052;BME280;53957;47.222;18.670;2023-05-27T23:59:38;100390.06;;;14.42;91.31
